createdAt,value
2022-10-09T00:00:02.362Z,8.27
2022-10-09T00:02:29.428Z,6.63
2022-10-09T00:07:43.822Z,6.00
2022-10-09T00:10:12.059Z,6.10
2022-10-09T00:12:40.596Z,7.67
2022-10-09T00:15:18.026Z,6.40
2022-10-09T00:17:55.341Z,6.13
2022-10-09T00:20:23.952Z,6.50
2022-10-09T00:22:52.342Z,8.77
2022-10-09T00:25:20.582Z,8.03
2022-10-09T00:27:49.242Z,6.73
2022-10-09T00:30:22.036Z,7.07
2022-10-09T00:32:52.562Z,6.50
2022-10-09T00:35:29.965Z,6.37
2022-10-09T00:37:59.316Z,6.60
2022-10-09T00:40:34.985Z,6.13
2022-10-09T00:43:09.386Z,7.30
2022-10-09T00:45:40.015Z,8.40
2022-10-09T00:48:14.385Z,5.70
2022-10-09T00:50:56.673Z,6.97
2022-10-09T00:53:25.464Z,6.27
2022-10-09T00:55:54.387Z,6.67
2022-10-09T00:58:23.088Z,10.63
2022-10-09T01:01:01.777Z,6.97
2022-10-09T01:03:33.347Z,6.40
2022-10-09T01:06:46.671Z,6.27
2022-10-09T01:09:30.151Z,8.57
2022-10-09T01:12:23.696Z,6.73
2022-10-09T01:15:21.991Z,7.80
2022-10-09T01:18:40.054Z,6.70
2022-10-09T01:21:51.579Z,7.63
2022-10-09T01:24:48.241Z,8.37
2022-10-09T01:27:30.912Z,8.27
2022-10-09T01:30:05.832Z,7.73
2022-10-09T01:32:37.452Z,7.77
2022-10-09T01:35:06.537Z,9.33
2022-10-09T01:37:35.990Z,7.70
2022-10-09T01:40:05.169Z,7.23
2022-10-09T01:42:47.755Z,7.57
2022-10-09T01:45:16.053Z,7.30
2022-10-09T01:50:43.682Z,7.73
2022-10-09T01:53:14.926Z,8.20
2022-10-09T01:56:02.742Z,7.73
2022-10-09T01:58:49.111Z,8.23
2022-10-09T02:01:19.029Z,6.73
2022-10-09T02:03:51.414Z,6.87
2022-10-09T02:06:20.363Z,6.77
2022-10-09T02:08:55.612Z,7.67
2022-10-09T02:11:27.929Z,5.90
2022-10-09T02:13:56.221Z,6.20
2022-10-09T02:16:39.611Z,6.13
2022-10-09T02:19:30.930Z,6.10
2022-10-09T02:22:13.571Z,7.97
2022-10-09T02:24:41.507Z,5.67
2022-10-09T02:27:10.078Z,5.90
2022-10-09T02:29:40.341Z,6.17
2022-10-09T02:32:07.627Z,6.50
2022-10-09T02:34:34.942Z,8.50
2022-10-09T02:39:44.036Z,7.97
2022-10-09T02:42:23.041Z,6.77
2022-10-09T02:45:00.130Z,6.63
2022-10-09T02:47:27.163Z,7.30
2022-10-09T02:49:54.235Z,7.97
2022-10-09T02:52:21.636Z,9.20
2022-10-09T02:54:48.667Z,7.20
2022-10-09T02:57:15.879Z,7.40
2022-10-09T02:59:48.928Z,9.33
2022-10-09T03:02:16.267Z,8.77
2022-10-09T03:04:43.519Z,7.37
2022-10-09T03:07:17.276Z,8.03
2022-10-09T03:09:44.431Z,6.70
2022-10-09T03:12:19.554Z,6.80
2022-10-09T03:14:46.706Z,6.77
2022-10-09T03:17:13.729Z,6.50
2022-10-09T03:19:40.853Z,6.30
2022-10-09T03:22:07.931Z,6.50
2022-10-09T03:24:34.971Z,6.70
2022-10-09T03:27:12.002Z,6.70
2022-10-09T03:29:39.801Z,6.90
2022-10-09T03:32:09.905Z,7.50
2022-10-09T03:34:37.071Z,6.77
2022-10-09T03:37:10.106Z,7.33
2022-10-09T03:39:37.247Z,9.50
2022-10-09T03:42:04.513Z,8.87
2022-10-09T03:44:35.569Z,9.00
2022-10-09T03:47:02.748Z,9.27
2022-10-09T03:49:30.186Z,9.10
2022-10-09T03:51:57.317Z,9.07
2022-10-09T03:54:30.271Z,11.80
2022-10-09T03:56:58.390Z,11.87
2022-10-09T03:59:25.672Z,9.53
2022-10-09T04:01:53.198Z,10.13
2022-10-09T04:04:20.483Z,10.13
2022-10-09T04:06:47.564Z,10.80
2022-10-09T04:09:14.690Z,11.27
2022-10-09T04:11:41.717Z,10.83
2022-10-09T04:14:09.018Z,9.87
2022-10-09T04:16:36.440Z,8.90
2022-10-09T04:19:03.672Z,8.80
2022-10-09T04:21:30.736Z,9.80
2022-10-09T04:23:59.337Z,10.77
2022-10-09T04:26:26.496Z,11.67
2022-10-09T04:28:56.987Z,8.60
2022-10-09T04:31:33.262Z,7.90
2022-10-09T04:34:00.458Z,8.07
2022-10-09T04:36:43.978Z,8.87
2022-10-09T04:39:11.281Z,11.17
2022-10-09T04:41:39.308Z,9.73
2022-10-09T04:44:07.008Z,9.30
2022-10-09T04:46:34.027Z,11.70
2022-10-09T04:49:01.322Z,12.10
2022-10-09T04:51:28.466Z,9.97
2022-10-09T04:54:13.562Z,9.67
2022-10-09T04:56:40.874Z,11.87
2022-10-09T04:59:08.139Z,9.60
2022-10-09T05:01:38.299Z,12.90
2022-10-09T05:04:05.883Z,11.40
2022-10-09T05:06:33.718Z,9.73
2022-10-09T05:09:00.906Z,11.70
2022-10-09T05:11:30.036Z,9.53
2022-10-09T05:14:04.890Z,9.60
2022-10-09T05:16:44.830Z,8.83
2022-10-09T05:19:21.527Z,8.50
2022-10-09T05:21:48.967Z,12.53
2022-10-09T05:24:16.229Z,13.40
2022-10-09T05:26:43.254Z,14.37
2022-10-09T05:32:01.622Z,10.10
2022-10-09T05:34:28.748Z,9.67
2022-10-09T05:36:55.952Z,9.40
2022-10-09T05:39:23.058Z,9.33
2022-10-09T05:41:50.170Z,10.33
2022-10-09T05:44:17.343Z,9.60
2022-10-09T05:46:44.506Z,9.17
2022-10-09T05:49:12.372Z,10.23
2022-10-09T05:52:02.373Z,8.00
2022-10-09T05:54:29.672Z,9.13
2022-10-09T05:56:56.832Z,8.00
2022-10-09T05:59:25.092Z,7.43
2022-10-09T06:01:53.970Z,8.57
2022-10-09T06:04:23.489Z,8.47
2022-10-09T06:06:51.578Z,8.40
2022-10-09T06:09:23.917Z,8.23
2022-10-09T06:11:51.811Z,7.93
2022-10-09T06:14:27.862Z,6.07
2022-10-09T06:17:02.347Z,6.53
2022-10-09T06:19:29.642Z,7.50
2022-10-09T06:21:56.848Z,9.90
2022-10-09T06:24:32.839Z,8.07
2022-10-09T06:26:59.909Z,6.90
2022-10-09T06:29:27.231Z,7.17
2022-10-09T06:31:54.334Z,6.90
2022-10-09T06:34:21.645Z,7.63
2022-10-09T06:36:55.007Z,7.73
2022-10-09T06:39:22.870Z,6.83
2022-10-09T06:41:50.042Z,6.30
2022-10-09T06:44:17.546Z,6.90
2022-10-09T06:46:46.691Z,8.23
2022-10-09T06:49:15.958Z,6.70
2022-10-09T06:51:49.158Z,10.10
2022-10-09T06:54:18.861Z,7.73
2022-10-09T06:56:46.495Z,7.93
2022-10-09T06:59:14.077Z,7.30
2022-10-09T07:01:41.434Z,8.05
2022-10-09T07:04:13.712Z,5.95
2022-10-09T07:07:08.874Z,6.70
2022-10-09T07:09:36.233Z,5.57
2022-10-09T07:12:06.877Z,6.43
2022-10-09T07:17:15.596Z,6.72
2022-10-09T07:19:47.168Z,5.72
2022-10-09T07:22:18.590Z,5.03
2022-10-09T07:24:50.552Z,5.28
2022-10-09T07:27:19.157Z,5.30
2022-10-09T07:29:47.186Z,5.53
2022-10-09T07:32:33.752Z,7.40
2022-10-09T07:35:05.712Z,6.88
2022-10-09T07:37:34.849Z,5.93
2022-10-09T07:40:10.477Z,5.05
2022-10-09T07:42:39.878Z,5.75
2022-10-09T07:45:08.243Z,8.15
2022-10-09T07:47:43.436Z,5.85
2022-10-09T07:50:10.939Z,4.93
2022-10-09T07:52:38.007Z,5.43
2022-10-09T07:55:07.529Z,8.13
2022-10-09T07:57:37.766Z,5.03
2022-10-09T08:00:12.112Z,5.70
2022-10-09T08:02:49.030Z,6.82
2022-10-09T08:05:18.052Z,6.28
2022-10-09T08:07:50.231Z,6.57
2022-10-09T08:10:18.526Z,10.05
2022-10-09T08:12:49.063Z,5.45
2022-10-09T08:15:21.421Z,10.73
2022-10-09T08:17:51.860Z,8.35
2022-10-09T08:20:25.786Z,8.13
2022-10-09T08:23:03.146Z,7.00
2022-10-09T08:25:30.378Z,6.45
2022-10-09T08:28:01.643Z,6.40
2022-10-09T08:30:37.454Z,5.47
2022-10-09T08:33:07.529Z,5.55
2022-10-09T08:35:36.185Z,6.03
2022-10-09T08:38:06.510Z,5.75
2022-10-09T08:41:02.807Z,8.75
2022-10-09T08:43:34.352Z,4.93
2022-10-09T08:46:33.055Z,6.18
2022-10-09T08:49:25.490Z,5.53
2022-10-09T08:52:19.773Z,7.38
2022-10-09T08:54:50.231Z,4.32
2022-10-09T08:57:21.616Z,5.38
2022-10-09T08:59:50.877Z,7.85
2022-10-09T09:02:55.569Z,4.00
2022-10-09T09:06:02.531Z,4.65
2022-10-09T09:08:59.506Z,5.38
2022-10-09T09:11:57.034Z,4.20
2022-10-09T09:14:42.596Z,7.43
2022-10-09T09:17:51.650Z,5.15
2022-10-09T09:21:13.071Z,6.00
2022-10-09T09:23:44.571Z,4.72
2022-10-09T09:26:22.027Z,5.40
2022-10-09T09:28:55.445Z,5.43
2022-10-09T09:31:40.327Z,6.28
2022-10-09T09:34:39.511Z,5.32
2022-10-09T09:37:20.859Z,5.40
2022-10-09T09:40:34.852Z,4.20
2022-10-09T09:42:52.896Z,5.30
2022-10-09T09:45:35.339Z,4.80
2022-10-09T09:48:22.127Z,5.15
2022-10-09T09:51:16.101Z,5.25
2022-10-09T09:53:46.235Z,37.42
2022-10-09T09:56:18.305Z,10.60
2022-10-09T09:58:54.666Z,16.63
2022-10-09T10:01:26.483Z,6.93
2022-10-09T10:03:58.719Z,5.40
2022-10-09T10:06:59.767Z,6.22
2022-10-09T10:09:30.396Z,4.70
2022-10-09T10:12:09.917Z,8.02
2022-10-09T10:14:52.061Z,6.53
2022-10-09T10:17:36.552Z,6.57
2022-10-09T10:20:20.410Z,6.28
2022-10-09T10:23:00.614Z,7.28
2022-10-09T10:25:35.684Z,5.13
2022-10-09T10:28:16.212Z,4.20
2022-10-09T10:30:45.790Z,6.95
2022-10-09T10:33:50.130Z,5.53
2022-10-09T10:36:17.291Z,7.10
2022-10-09T10:38:56.236Z,5.47
2022-10-09T10:41:32.712Z,6.07
2022-10-09T10:44:14.187Z,5.63
2022-10-09T10:46:56.160Z,4.47
2022-10-09T10:49:29.342Z,6.88
2022-10-09T10:52:47.361Z,5.80
2022-10-09T10:55:54.728Z,5.43
2022-10-09T10:58:31.854Z,6.50
2022-10-09T11:01:23.144Z,6.30
2022-10-09T11:04:28.956Z,5.97
2022-10-09T11:07:32.237Z,5.57
2022-10-09T11:10:37.830Z,4.82
2022-10-09T11:13:37.464Z,5.10
2022-10-09T11:16:40.532Z,5.03
2022-10-09T11:19:32.944Z,7.25
2022-10-09T11:22:18.600Z,6.18
2022-10-09T11:25:50.962Z,7.82
2022-10-09T11:28:38.818Z,4.18
2022-10-09T11:31:45.095Z,4.78
2022-10-09T11:34:23.051Z,4.45
2022-10-09T11:36:53.712Z,7.28
2022-10-09T11:39:25.529Z,6.22
2022-10-09T11:41:57.473Z,4.85
2022-10-09T11:45:04.296Z,6.72
2022-10-09T11:48:05.289Z,6.22
2022-10-09T11:50:53.808Z,3.85
2022-10-09T11:53:27.702Z,5.10
2022-10-09T11:56:23.409Z,4.18
2022-10-09T11:59:06.094Z,3.83
2022-10-09T12:01:42.519Z,5.20
2022-10-09T12:10:33.836Z,4.85
2022-10-09T12:13:09.306Z,4.35
2022-10-09T12:15:55.498Z,5.20
2022-10-09T12:18:45.273Z,6.15
2022-10-09T12:21:31.329Z,6.75
2022-10-09T12:24:00.583Z,4.72
2022-10-09T12:26:37.648Z,4.18
2022-10-09T12:29:07.697Z,5.70
2022-10-09T12:31:51.226Z,3.90
2022-10-09T12:34:43.393Z,4.97
2022-10-09T12:37:24.053Z,5.70
2022-10-09T12:39:53.517Z,4.57
2022-10-09T12:42:33.082Z,6.57
2022-10-09T12:45:01.821Z,5.57
2022-10-09T12:47:32.978Z,5.03
2022-10-09T12:50:24.302Z,7.63
2022-10-09T12:53:13.170Z,5.97
2022-10-09T12:55:56.581Z,4.37
2022-10-09T12:58:42.403Z,6.77
2022-10-09T13:01:16.378Z,4.37
2022-10-09T13:04:07.452Z,4.77
2022-10-09T13:07:03.234Z,5.20
2022-10-09T13:09:43.731Z,6.07
2022-10-09T13:12:38.150Z,6.38
2022-10-09T13:15:26.346Z,6.47
2022-10-09T13:17:54.627Z,4.75
2022-10-09T13:20:40.101Z,4.00
2022-10-09T13:23:09.551Z,6.03
2022-10-09T13:25:43.320Z,4.45
2022-10-09T13:28:27.546Z,5.43
2022-10-09T13:31:05.579Z,6.85
2022-10-09T13:33:38.719Z,4.97
2022-10-09T13:36:09.667Z,7.30
2022-10-09T13:38:47.554Z,6.43
2022-10-09T13:41:31.802Z,5.68
2022-10-09T13:44:01.762Z,5.63
2022-10-09T13:46:28.806Z,5.97
2022-10-09T13:48:57.982Z,4.85
2022-10-09T13:51:28.087Z,5.53
2022-10-09T13:54:05.158Z,8.50
2022-10-09T13:56:33.587Z,4.25
2022-10-09T13:59:02.627Z,4.47
2022-10-09T14:01:33.219Z,5.90
2022-10-09T14:04:10.441Z,4.43
2022-10-09T14:06:42.729Z,4.25
2022-10-09T14:09:11.401Z,5.95
2022-10-09T14:11:40.941Z,5.22
2022-10-09T14:14:10.529Z,4.68
2022-10-09T14:16:40.259Z,5.90
2022-10-09T14:19:17.842Z,6.72
2022-10-09T14:21:48.071Z,4.78
2022-10-09T14:24:16.436Z,4.95
2022-10-09T14:26:51.361Z,6.18
2022-10-09T14:29:20.587Z,5.05
2022-10-09T14:31:52.726Z,5.25
2022-10-09T14:34:23.059Z,4.70
2022-10-09T14:36:52.412Z,7.97
2022-10-09T14:39:36.122Z,7.95
2022-10-09T14:42:06.707Z,6.33
2022-10-09T14:44:36.038Z,5.43
2022-10-09T14:47:04.495Z,5.63
2022-10-09T14:49:32.656Z,6.10
2022-10-09T14:52:03.237Z,6.13
2022-10-09T14:54:38.870Z,7.37
2022-10-09T14:57:08.221Z,6.40
2022-10-09T14:59:45.314Z,7.83
2022-10-09T15:02:30.157Z,7.50
2022-10-09T15:05:02.107Z,7.37
2022-10-09T15:07:32.157Z,5.57
2022-10-09T15:10:02.395Z,5.83
2022-10-09T15:12:31.875Z,7.27
2022-10-09T15:15:02.282Z,4.50
2022-10-09T15:17:30.821Z,7.33
2022-10-09T15:20:08.120Z,5.60
2022-10-09T15:22:38.228Z,7.18
2022-10-09T15:25:17.309Z,5.03
2022-10-09T15:27:45.602Z,5.30
2022-10-09T15:30:22.618Z,5.10
2022-10-09T15:32:50.837Z,9.30
2022-10-09T15:35:19.295Z,5.47
2022-10-09T15:37:49.392Z,6.60
2022-10-09T15:40:20.358Z,4.70
2022-10-09T15:42:49.321Z,6.07
2022-10-09T15:45:17.882Z,5.37
2022-10-09T15:47:51.266Z,5.27
2022-10-09T15:50:20.116Z,5.90
2022-10-09T15:52:48.779Z,6.17
2022-10-09T15:55:16.255Z,8.10
2022-10-09T15:57:44.391Z,6.93
2022-10-09T16:00:20.521Z,8.80
2022-10-09T16:02:49.254Z,10.13
2022-10-09T16:08:04.342Z,7.90
2022-10-09T16:10:33.784Z,8.70
2022-10-09T16:13:03.266Z,8.53
2022-10-09T16:15:40.358Z,8.93
2022-10-09T16:18:09.456Z,11.90
2022-10-09T16:20:38.627Z,7.73
2022-10-09T16:23:11.117Z,8.57
2022-10-09T16:25:41.815Z,7.27
2022-10-09T16:28:12.592Z,10.90
2022-10-09T16:30:45.242Z,7.60
2022-10-09T16:33:13.031Z,11.20
2022-10-09T16:35:40.925Z,9.37
2022-10-09T16:38:17.031Z,8.73
2022-10-09T16:41:04.563Z,9.87
2022-10-09T16:43:38.095Z,10.27
2022-10-09T16:46:35.646Z,9.80
2022-10-09T16:49:05.525Z,8.23
2022-10-09T16:51:39.681Z,8.80
2022-10-09T16:54:10.426Z,10.00
2022-10-09T16:56:44.365Z,11.20
2022-10-09T16:59:20.472Z,7.07
2022-10-09T17:01:52.504Z,8.67
2022-10-09T17:04:23.574Z,8.03
2022-10-09T17:06:53.742Z,7.53
2022-10-09T17:09:23.445Z,7.07
2022-10-09T17:11:53.380Z,7.57
2022-10-09T17:14:21.782Z,13.83
2022-10-09T17:16:59.161Z,8.00
2022-10-09T17:19:36.220Z,8.33
2022-10-09T17:22:05.453Z,8.73
2022-10-09T17:24:34.334Z,7.60
2022-10-09T17:27:01.657Z,8.43
2022-10-09T17:29:32.177Z,10.50
2022-10-09T17:32:02.787Z,11.73
2022-10-09T17:34:32.297Z,9.33
2022-10-09T17:37:01.415Z,12.40
2022-10-09T17:39:37.535Z,10.50
2022-10-09T17:42:05.891Z,7.53
2022-10-09T17:44:34.273Z,8.50
2022-10-09T17:47:13.011Z,7.83
2022-10-09T17:49:44.776Z,6.10
2022-10-09T17:52:15.131Z,8.07
2022-10-09T17:54:42.135Z,8.43
2022-10-09T17:57:13.186Z,11.07
2022-10-09T17:59:44.089Z,8.87
2022-10-09T18:02:14.872Z,10.10
2022-10-09T18:04:44.732Z,12.77
2022-10-09T18:07:22.186Z,11.33
2022-10-09T18:09:59.672Z,11.73
2022-10-09T18:12:28.277Z,11.50
2022-10-09T18:15:00.050Z,10.83
2022-10-09T18:17:31.237Z,11.37
2022-10-09T18:20:00.677Z,11.20
2022-10-09T18:22:38.100Z,8.87
2022-10-09T18:25:08.802Z,14.23
2022-10-09T18:27:38.935Z,12.27
2022-10-09T18:30:15.626Z,14.20
2022-10-09T18:32:43.773Z,17.83
2022-10-09T18:35:12.126Z,20.13
2022-10-09T18:37:42.477Z,24.90
2022-10-09T18:40:10.881Z,23.57
2022-10-09T18:42:41.077Z,20.40
2022-10-09T18:45:12.882Z,18.23
2022-10-09T18:47:44.122Z,19.43
2022-10-09T18:50:14.227Z,19.87
2022-10-09T18:52:52.289Z,17.00
2022-10-09T18:55:22.374Z,16.70
2022-10-09T18:57:49.749Z,18.83
2022-10-09T19:00:18.645Z,16.60
2022-10-09T19:02:47.280Z,16.93
2022-10-09T19:05:23.443Z,14.50
2022-10-09T19:07:52.473Z,15.77
2022-10-09T19:10:23.186Z,16.90
2022-10-09T19:13:00.741Z,14.27
2022-10-09T19:15:36.641Z,11.30
2022-10-09T19:18:06.612Z,14.57
2022-10-09T19:20:41.651Z,14.30
2022-10-09T19:23:10.039Z,11.90
2022-10-09T19:25:38.624Z,9.50
2022-10-09T19:28:07.465Z,11.80
2022-10-09T19:30:37.734Z,10.53
2022-10-09T19:33:06.241Z,9.57
2022-10-09T19:35:44.004Z,10.50
2022-10-09T19:38:14.132Z,10.83
2022-10-09T19:40:44.435Z,10.13
2022-10-09T19:43:16.187Z,9.93
2022-10-09T19:45:44.666Z,11.80
2022-10-09T19:48:15.058Z,9.87
2022-10-09T19:50:47.799Z,8.10
2022-10-09T19:53:16.358Z,8.27
2022-10-09T19:55:45.238Z,8.13
2022-10-09T19:58:18.774Z,9.40
2022-10-09T20:00:54.973Z,7.60
2022-10-09T20:03:24.836Z,9.93
2022-10-09T20:05:52.951Z,11.43
2022-10-09T20:08:21.247Z,9.03
2022-10-09T20:10:51.767Z,7.20
2022-10-09T20:13:20.532Z,10.23
2022-10-09T20:15:50.676Z,9.60
2022-10-09T20:18:17.696Z,8.70
2022-10-09T20:20:51.687Z,7.90
2022-10-09T20:23:28.796Z,9.33
2022-10-09T20:26:09.887Z,8.30
2022-10-09T20:28:40.828Z,7.63
2022-10-09T20:31:11.871Z,9.13
2022-10-09T20:33:40.622Z,7.93
2022-10-09T20:36:22.735Z,8.00
2022-10-09T20:38:58.947Z,8.97
2022-10-09T20:41:38.343Z,14.17
2022-10-09T20:44:08.848Z,10.23
2022-10-09T20:46:38.843Z,10.60
2022-10-09T20:49:14.473Z,10.20
2022-10-09T20:51:44.512Z,9.37
2022-10-09T20:54:22.776Z,9.80
2022-10-09T20:57:01.396Z,9.63
2022-10-09T20:59:37.962Z,7.63
2022-10-09T21:02:07.972Z,6.67
2022-10-09T21:04:37.596Z,7.67
2022-10-09T21:07:07.771Z,8.70
2022-10-09T21:09:38.831Z,8.63
2022-10-09T21:12:07.877Z,7.30
2022-10-09T21:14:37.107Z,8.80
2022-10-09T21:17:05.557Z,7.57
2022-10-09T21:19:34.054Z,11.27
2022-10-09T21:22:02.397Z,7.17
2022-10-09T21:24:31.948Z,6.43
2022-10-09T21:27:01.157Z,8.77
2022-10-09T21:29:29.965Z,8.30
2022-10-09T21:32:05.607Z,10.40
2022-10-09T21:34:35.655Z,8.57
2022-10-09T21:39:54.561Z,8.27
2022-10-09T21:42:32.076Z,6.17
2022-10-09T21:45:02.397Z,5.87
2022-10-09T21:47:38.911Z,6.73
2022-10-09T21:50:07.095Z,7.53
2022-10-09T21:52:44.726Z,5.23
2022-10-09T21:55:15.236Z,6.13
2022-10-09T21:57:45.236Z,6.93
2022-10-09T22:00:15.844Z,7.83
2022-10-09T22:02:44.792Z,6.77
2022-10-09T22:05:35.398Z,8.47
2022-10-09T22:08:06.487Z,4.90
2022-10-09T22:10:36.662Z,5.37
2022-10-09T22:13:15.956Z,5.03
2022-10-09T22:15:50.128Z,7.83
2022-10-09T22:18:22.806Z,7.40
2022-10-09T22:20:53.174Z,5.87
2022-10-09T22:23:30.817Z,6.73
2022-10-09T22:26:03.092Z,7.77
2022-10-09T22:28:31.927Z,11.07
2022-10-09T22:31:29.471Z,9.07
2022-10-09T22:34:04.717Z,11.70
2022-10-09T22:36:46.788Z,12.97
2022-10-09T22:39:15.427Z,13.13
2022-10-09T22:41:47.938Z,11.73
2022-10-09T22:44:17.401Z,15.90
2022-10-09T22:46:56.734Z,15.83
2022-10-09T22:49:26.155Z,10.33
2022-10-09T22:52:03.567Z,14.03
2022-10-09T22:54:34.782Z,11.27
2022-10-09T22:57:04.121Z,9.57
2022-10-09T22:59:33.467Z,8.83
2022-10-09T23:02:03.481Z,8.43
2022-10-09T23:04:40.006Z,6.93
2022-10-09T23:07:11.076Z,9.10
2022-10-09T23:09:40.275Z,6.23
2022-10-09T23:12:08.342Z,6.33
2022-10-09T23:14:36.534Z,5.37
2022-10-09T23:17:13.742Z,7.67
2022-10-09T23:19:43.216Z,7.50
2022-10-09T23:22:11.402Z,5.77
2022-10-09T23:24:39.646Z,5.57
2022-10-09T23:27:10.085Z,9.47
2022-10-09T23:29:46.746Z,5.57
2022-10-09T23:32:16.520Z,6.13
2022-10-09T23:34:46.695Z,7.83
2022-10-09T23:37:22.697Z,5.63
2022-10-09T23:39:53.017Z,5.23
2022-10-09T23:42:22.497Z,7.07
2022-10-09T23:44:50.716Z,5.20
2022-10-09T23:47:20.376Z,4.47
2022-10-09T23:49:50.708Z,4.80
2022-10-09T23:52:21.362Z,5.87
2022-10-09T23:54:51.341Z,4.17
2022-10-09T23:57:21.957Z,4.90
2022-10-09T23:59:51.972Z,5.73
